Terminal Aerodrome Forecast
Issued by NWS Wakefield, VA

Home | Current Version | Previous Version | Text Only | Print | Product List | Glossary On
Versions: 1 2 3 4 5 6 7 8 9 10 11 12 13 14 15 16 17 18 19
000
FTUS41 KAKQ 022340
TAFORF
TAF
KORF 022340Z 0300/0324 06010KT P6SM OVC007
      TEMPO 0300/0304 4SM -RA BR OVC004
     FM030400 05008KT 4SM -RA BR OVC005
     FM031200 04012G19KT 3SM -RA BR OVC008=

USA.gov is the U.S. government's official web portal to all federal, state and local government web resources and services.